Thunder radar more information blitzortung!


Radar de pluja more information rain snow radar


Visita la nostra xarxa de llocs de meteo:

Template documentation
and downloads

And another site



No particular awareness of the weather is required.    There are no Weather-warnings

Pagina Historial Weather Underground text

Diari Resum Agost 24, 2017 Unitats:  Imperial    Mètric   Tant
« Previous Dia
SegĂźent Dia »
Diari Setmana Mensual Anual Personalitzada
  Maxima: Minima: Media:
Temperatura: TemperatureC °F 20.6 °F 27.3 °F
Punt de rosada: DewpointC °F 8.4 °F 13.4 °F
Humitat: Humidity % 25 % 45 %
Wind Speed: WindSpeedKMH mph 0.0 mph 5.8 mph
RĂ fegues de vent: WindSpeedGustKMH mph - -
Vent:- - SW
Pression baro: PressurehPa in 1014.8 in -
Precipitacions: 0.0 in    
Historical Graphs
 
 
Dades de taula per Agost 24, 2017
Temps Temperatura Punt de rosada Pression baro Vent Wind Speed RĂ fegues de vent Humitat Rainfall Rate (Hourly)
TemperatureC °F DewpointC °F PressurehPa in Calm     Humidity % HourlyPrecipMM in
00:00 21.9 °F 16.6 °F 1015.8 in WSW 4.8 mph 9.7 mph 72 % 0.0 in
00:02 23.2 °F 17.4 °F 1015.8 in SSW 3.9 mph 3.9 mph 70 % 0.0 in
00:07 23.1 °F 17.6 °F 1015.8 in SW 2.3 mph 2.3 mph 71 % 0.0 in
00:10 22.1 °F 15.4 °F 1015.8 in WSW 1.6 mph 4.8 mph 66 % 0.0 in
00:20 22.1 °F 15.2 °F 1015.8 in Calm   3.2 mph 65 % 0.0 in
00:30 22.1 °F 14.5 °F 1014.8 in Calm   1.6 mph 62 % 0.0 in
00:40 21.9 °F 15.0 °F 1014.8 in SW 3.2 mph 8.0 mph 65 % 0.0 in
00:50 21.7 °F 14.8 °F 1014.8 in SW 3.2 mph 6.4 mph 65 % 0.0 in
01:00 21.9 °F 15.0 °F 1014.8 in WSW 4.8 mph 9.7 mph 65 % 0.0 in
01:10 22.0 °F 14.6 °F 1014.8 in SW 1.6 mph 4.8 mph 63 % 0.0 in
01:30 21.8 °F 14.7 °F 1014.8 in WSW 1.6 mph 3.2 mph 64 % 0.0 in
01:40 21.7 °F 14.6 °F 1014.8 in Calm   3.2 mph 64 % 0.0 in
01:50 21.7 °F 14.3 °F 1014.8 in SW 1.6 mph 3.2 mph 63 % 0.0 in
02:00 21.5 °F 14.2 °F 1014.8 in Calm   3.2 mph 63 % 0.0 in
02:10 21.6 °F 14.3 °F 1014.8 in SW 4.8 mph 4.8 mph 63 % 0.0 in
02:20 21.5 °F 14.2 °F 1014.8 in WSW 1.6 mph 4.8 mph 63 % 0.0 in
02:30 21.6 °F 14.0 °F 1014.8 in West 1.6 mph 3.2 mph 62 % 0.0 in
02:40 21.3 °F 13.7 °F 1014.8 in SW 3.2 mph 4.8 mph 62 % 0.0 in
02:50 21.2 °F 13.9 °F 1014.8 in SW 1.6 mph 3.2 mph 63 % 0.0 in
03:00 21.2 °F 13.9 °F 1014.8 in Calm   3.2 mph 63 % 0.0 in
03:10 21.4 °F 13.8 °F 1014.8 in SSW 1.6 mph 3.2 mph 62 % 0.0 in
03:20 21.4 °F 13.8 °F 1014.8 in West 1.6 mph 1.6 mph 62 % 0.0 in
03:30 21.7 °F 14.1 °F 1014.8 in WNW 1.6 mph 3.2 mph 62 % 0.0 in
03:40 21.8 °F 13.9 °F 1014.8 in North 1.6 mph 3.2 mph 61 % 0.0 in
03:50 21.6 °F 13.8 °F 1014.8 in NE 1.6 mph 3.2 mph 61 % 0.0 in
04:00 21.6 °F 13.8 °F 1014.8 in ENE 3.2 mph 3.2 mph 61 % 0.0 in
04:10 21.7 °F 13.8 °F 1014.8 in WSW 1.6 mph 4.8 mph 61 % 0.0 in
04:20 21.9 °F 14.1 °F 1014.8 in WSW 1.6 mph 4.8 mph 61 % 0.0 in
04:40 22.8 °F 14.6 °F 1015.8 in Calm   3.2 mph 60 % 0.0 in
04:50 23.3 °F 14.8 °F 1014.8 in SW 1.6 mph 1.6 mph 59 % 0.0 in
05:00 23.2 °F 14.5 °F 1015.8 in Calm   3.2 mph 58 % 0.0 in
09:00 31.4 °F 17.3 °F 1015.8 in SW 4.8 mph 9.7 mph 43 % 0.0 in
09:10 31.7 °F 17.2 °F 1015.8 in SW 4.8 mph 12.9 mph 42 % 0.0 in
09:20 32.4 °F 17.8 °F 1015.8 in SW 3.2 mph 6.4 mph 42 % 0.0 in
09:30 32.1 °F 17.2 °F 1015.8 in SW 9.7 mph 9.7 mph 41 % 0.0 in
09:40 32.3 °F 17.0 °F 1015.8 in SW 8.0 mph 12.9 mph 40 % 0.0 in
09:50 33.2 °F 16.9 °F 1015.8 in SW 4.8 mph 8.0 mph 38 % 0.0 in
10:04 22.8 °F 16.1 °F 1014.8 in SSW 3.7 mph 3.7 mph 66 % 0.0 in
10:09 22.8 °F 16.1 °F 1014.8 in ESE 1.9 mph   66 % 0.0 in
10:14 23.0 °F 16.3 °F 1015.8 in WNW 1.9 mph   66 % 0.0 in
10:19 23.2 °F 16.5 °F 1015.8 in SSE 3.7 mph 3.7 mph 66 % 0.0 in
10:24 23.6 °F 16.9 °F 1015.8 in SSE 4.2 mph 4.2 mph 66 % 0.0 in
10:29 23.9 °F 16.9 °F 1015.8 in SSE 2.6 mph 2.6 mph 65 % 0.0 in
10:34 24.1 °F 16.6 °F 1015.8 in SSE 3.7 mph 3.7 mph 63 % 0.0 in
10:39 24.1 °F 16.4 °F 1015.8 in NNE 4.7 mph 4.7 mph 62 % 0.0 in
10:44 24.0 °F 17.0 °F 1014.8 in West 4.2 mph 4.2 mph 65 % 0.0 in
10:49 23.5 °F 17.0 °F 1014.8 in West 5.6 mph 5.6 mph 67 % 0.0 in
10:54 23.4 °F 17.2 °F 1014.8 in NNW 2.3 mph 2.3 mph 68 % 0.0 in
10:59 23.5 °F 17.7 °F 1015.8 in East 2.6 mph 2.6 mph 70 % 0.0 in
11:04 24.1 °F 17.8 °F 1015.8 in WNW 3.7 mph 3.7 mph 68 % 0.0 in
11:09 24.8 °F 18.0 °F 1015.8 in NNE 7.4 mph 7.4 mph 66 % 0.0 in
11:14 25.4 °F 17.8 °F 1015.8 in WNW 5.8 mph 5.8 mph 63 % 0.0 in
11:52 28.1 °F 17.9 °F 1015.8 in WSW 5.6 mph 5.6 mph 54 % 0.0 in
11:57 28.7 °F 18.2 °F 1015.8 in West 9.3 mph 9.3 mph 53 % 0.0 in
12:02 29.0 °F 18.2 °F 1015.8 in West 7.4 mph 7.6 mph 52 % 0.0 in
12:07 29.1 °F 17.9 °F 1015.8 in SW 9.3 mph 9.3 mph 51 % 0.0 in
12:12 29.3 °F 18.1 °F 1015.8 in West 7.4 mph 7.4 mph 51 % 0.0 in
12:17 29.7 °F 18.2 °F 1015.8 in WSW 7.4 mph 7.4 mph 50 % 0.0 in
12:18 29.7 °F 18.2 °F 1015.8 in West 7.4 mph 7.4 mph 50 % 0.0 in
12:23 29.8 °F 18.3 °F 1015.8 in WSW 9.3 mph 9.3 mph 50 % 0.0 in
12:28 30.0 °F 18.1 °F 1015.8 in SW 10.3 mph 10.3 mph 49 % 0.0 in
12:33 30.4 °F 18.2 °F 1015.8 in SW 5.6 mph 5.6 mph 48 % 0.0 in
12:38 31.1 °F 18.4 °F 1015.8 in WSW 7.4 mph 7.4 mph 47 % 0.0 in
12:43 31.3 °F 18.3 °F 1015.8 in SW 7.4 mph 7.4 mph 46 % 0.0 in
14:55 33.0 °F 15.1 °F 1014.8 in South 16.7 mph 16.7 mph 34 % 0.0 in
15:00 33.2 °F 15.7 °F 1014.8 in WSW 9.3 mph 9.3 mph 35 % 0.0 in
15:05 33.4 °F 15.8 °F 1014.8 in South 9.3 mph 9.3 mph 35 % 0.0 in
15:10 34.0 °F 16.4 °F 1014.8 in West 5.0 mph 5.3 mph 35 % 0.0 in
15:15 33.9 °F 14.9 °F 1014.8 in South 16.7 mph 16.7 mph 32 % 0.0 in
15:20 34.1 °F 15.6 °F 1014.8 in WSW 9.3 mph 10.3 mph 33 % 0.0 in
15:25 33.5 °F 15.0 °F 1014.8 in SW 13.0 mph 13.0 mph 33 % 0.0 in
15:30 33.7 °F 15.2 °F 1014.8 in SW 7.4 mph 7.4 mph 33 % 0.0 in
15:35 34.4 °F 15.3 °F 1014.8 in SSW 7.9 mph 7.9 mph 32 % 0.0 in
15:40 34.0 °F 13.4 °F 1014.8 in SW 16.7 mph 16.7 mph 29 % 0.0 in
15:45 33.7 °F 12.7 °F 1014.8 in SE 16.7 mph 16.7 mph 28 % 0.0 in
15:50 33.7 °F 12.7 °F 1014.8 in WSW 18.5 mph 18.5 mph 28 % 0.0 in
15:55 33.8 °F 12.7 °F 1014.8 in South 11.1 mph 11.1 mph 28 % 0.0 in
16:00 34.1 °F 13.0 °F 1014.8 in SSW 11.4 mph 11.4 mph 28 % 0.0 in
16:05 33.6 °F 12.6 °F 1014.8 in SSW 16.7 mph 16.7 mph 28 % 0.0 in
16:10 33.6 °F 12.6 °F 1014.8 in SW 9.3 mph 10.8 mph 28 % 0.0 in
16:11 33.6 °F 12.6 °F 1014.8 in South 18.5 mph 18.5 mph 28 % 0.0 in
16:16 32.8 °F 11.3 °F 1014.8 in SW 11.1 mph 11.1 mph 27 % 0.0 in
16:21 33.3 °F 12.3 °F 1014.8 in WSW 9.3 mph 9.3 mph 28 % 0.0 in
16:26 33.2 °F 11.7 °F 1014.8 in SSW 10.0 mph 10.0 mph 27 % 0.0 in
16:31 33.6 °F 12.0 °F 1014.8 in SSW 9.3 mph 9.3 mph 27 % 0.0 in
16:36 34.3 °F 12.6 °F 1014.8 in SW 4.7 mph 4.7 mph 27 % 0.0 in
16:41 34.2 °F 12.6 °F 1014.8 in SSW 11.1 mph 11.1 mph 27 % 0.0 in
16:46 33.9 °F 12.3 °F 1014.8 in SW 13.0 mph 13.0 mph 27 % 0.0 in
16:51 33.8 °F 12.2 °F 1014.8 in WSW 12.6 mph 12.6 mph 27 % 0.0 in
16:56 33.8 °F 12.7 °F 1014.8 in SSW 13.0 mph 13.0 mph 28 % 0.0 in
17:01 33.6 °F 12.6 °F 1014.8 in SW 7.4 mph 7.4 mph 28 % 0.0 in
17:06 33.5 °F 12.5 °F 1014.8 in SW 9.0 mph 9.0 mph 28 % 0.0 in
17:11 33.4 °F 11.8 °F 1014.8 in SW 9.3 mph 9.3 mph 27 % 0.0 in
17:16 33.7 °F 12.1 °F 1014.8 in South 11.1 mph 11.1 mph 27 % 0.0 in
17:21 33.7 °F 11.6 °F 1014.8 in SW 11.1 mph 11.1 mph 26 % 0.0 in
17:26 33.5 °F 11.9 °F 1014.8 in SW 9.3 mph 9.3 mph 27 % 0.0 in
17:31 33.5 °F 11.9 °F 1014.8 in SW 7.6 mph 7.6 mph 27 % 0.0 in
17:36 33.6 °F 12.0 °F 1014.8 in SSE 5.6 mph 5.8 mph 27 % 0.0 in
17:41 33.8 °F 12.2 °F 1014.8 in SSW 9.3 mph 9.3 mph 27 % 0.0 in
17:46 33.2 °F 11.1 °F 1014.8 in SSW 9.3 mph 9.3 mph 26 % 0.0 in
17:51 33.1 °F 11.0 °F 1014.8 in SSW 11.1 mph 11.1 mph 26 % 0.0 in
17:56 33.2 °F 11.1 °F 1014.8 in SSW 18.5 mph 18.5 mph 26 % 0.0 in
18:01 33.1 °F 11.0 °F 1014.8 in WSW 10.3 mph 10.3 mph 26 % 0.0 in
18:06 33.0 °F 10.9 °F 1014.8 in SW 9.3 mph 10.3 mph 26 % 0.0 in
18:11 32.8 °F 10.8 °F 1014.8 in SW 9.3 mph 9.3 mph 26 % 0.0 in
18:16 32.9 °F 10.8 °F 1014.8 in SSW 11.1 mph 11.1 mph 26 % 0.0 in
18:21 32.5 °F 9.9 °F 1014.8 in WSW 9.3 mph 9.3 mph 25 % 0.0 in
18:26 32.8 °F 10.8 °F 1014.8 in SSW 9.3 mph 9.3 mph 26 % 0.0 in
18:31 32.5 °F 9.9 °F 1014.8 in SW 14.0 mph 14.0 mph 25 % 0.0 in
18:36 32.0 °F 9.5 °F 1014.8 in SW 9.3 mph 9.3 mph 25 % 0.0 in
18:41 32.0 °F 9.5 °F 1014.8 in SW 9.3 mph 9.3 mph 25 % 0.0 in
18:46 32.0 °F 9.5 °F 1014.8 in WSW 9.3 mph 9.3 mph 25 % 0.0 in
18:51 31.7 °F 9.3 °F 1014.8 in WNW 11.1 mph 11.1 mph 25 % 0.0 in
18:56 31.7 °F 9.3 °F 1014.8 in SW 11.1 mph 11.1 mph 25 % 0.0 in
19:01 31.6 °F 9.2 °F 1014.8 in SW 11.1 mph 11.1 mph 25 % 0.0 in
19:06 31.3 °F 9.5 °F 1014.8 in WSW 15.1 mph 15.1 mph 26 % 0.0 in
19:11 31.0 °F 9.2 °F 1014.8 in SW 5.3 mph 5.3 mph 26 % 0.0 in
19:16 30.9 °F 9.2 °F 1014.8 in SSW 11.1 mph 11.1 mph 26 % 0.0 in
19:21 30.6 °F 8.9 °F 1014.8 in SW 9.3 mph 9.3 mph 26 % 0.0 in
19:26 30.3 °F 8.7 °F 1014.8 in SW 9.3 mph 9.3 mph 26 % 0.0 in
19:31 30.0 °F 8.4 °F 1014.8 in WSW 9.3 mph 9.3 mph 26 % 0.0 in
19:41 29.6 °F 8.6 °F 1014.8 in SW 9.3 mph 9.3 mph 27 % 0.0 in
19:46 29.4 °F 8.4 °F 1014.8 in SW 7.6 mph 7.6 mph 27 % 0.0 in
19:51 29.2 °F 8.8 °F 1014.8 in SW 7.6 mph 7.6 mph 28 % 0.0 in
19:56 29.0 °F 8.7 °F 1014.8 in WSW 7.4 mph 7.4 mph 28 % 0.0 in
20:01 28.8 °F 9.0 °F 1014.8 in SW 11.1 mph 11.1 mph 29 % 0.0 in
20:06 28.6 °F 8.8 °F 1014.8 in SW 11.1 mph 11.1 mph 29 % 0.0 in
20:11 28.3 °F 8.6 °F 1014.8 in South 5.6 mph 5.6 mph 29 % 0.0 in
20:16 28.1 °F 8.4 °F 1014.8 in SW 9.3 mph 9.3 mph 29 % 0.0 in
20:21 27.9 °F 8.7 °F 1014.8 in WSW 7.4 mph 7.4 mph 30 % 0.0 in
20:26 27.7 °F 8.6 °F 1014.8 in SW 4.2 mph 4.2 mph 30 % 0.0 in
20:31 27.4 °F 8.8 °F 1014.8 in WSW 5.6 mph 5.6 mph 31 % 0.0 in
20:36 27.2 °F 9.1 °F 1014.8 in SW 5.6 mph 5.6 mph 32 % 0.0 in
20:41 27.0 °F 8.9 °F 1014.8 in SSW 5.0 mph 5.0 mph 32 % 0.0 in
20:46 26.8 °F 9.6 °F 1014.8 in SW 5.6 mph 5.6 mph 34 % 0.0 in
20:51 26.5 °F 9.8 °F 1014.8 in WSW 3.7 mph 3.7 mph 35 % 0.0 in
20:56 26.4 °F 10.1 °F 1014.8 in WSW 3.7 mph 3.7 mph 36 % 0.0 in
21:01 26.2 °F 9.9 °F 1014.8 in SW 3.7 mph 3.7 mph 36 % 0.0 in
21:06 26.0 °F 10.2 °F 1014.8 in SW 3.7 mph 3.7 mph 37 % 0.0 in
21:11 25.9 °F 10.1 °F 1015.8 in WSW 3.9 mph 3.9 mph 37 % 0.0 in
21:12 25.9 °F 10.1 °F 1015.8 in WSW 4.2 mph 4.2 mph 37 % 0.0 in
21:17 25.8 °F 10.4 °F 1015.8 in WSW 3.9 mph 3.9 mph 38 % 0.0 in
21:22 25.7 °F 10.7 °F 1015.8 in West 7.4 mph 7.4 mph 39 % 0.0 in
21:27 25.5 °F 10.9 °F 1015.8 in SW 3.7 mph 3.7 mph 40 % 0.0 in
21:32 25.3 °F 11.1 °F 1015.8 in WSW 3.7 mph 3.7 mph 41 % 0.0 in
21:37 25.2 °F 11.0 °F 1015.8 in WSW 3.9 mph 3.9 mph 41 % 0.0 in
21:42 25.2 °F 11.0 °F 1014.8 in West 3.2 mph 3.5 mph 41 % 0.0 in
21:47 25.1 °F 11.3 °F 1014.8 in WSW 3.7 mph 3.7 mph 42 % 0.0 in
21:52 25.0 °F 11.2 °F 1014.8 in SW 3.7 mph 3.7 mph 42 % 0.0 in
21:57 24.9 °F 11.8 °F 1014.8 in WSW 3.7 mph 3.7 mph 44 % 0.0 in
22:02 24.9 °F 12.2 °F 1014.8 in WSW 1.9 mph 1.9 mph 45 % 0.0 in
22:07 24.9 °F 12.2 °F 1014.8 in WSW 3.9 mph 3.9 mph 45 % 0.0 in
22:12 24.9 °F 12.5 °F 1015.8 in WSW 3.7 mph 3.7 mph 46 % 0.0 in
22:17 24.9 °F 12.8 °F 1015.8 in WSW 3.7 mph 3.7 mph 47 % 0.0 in
22:22 24.8 °F 13.1 °F 1015.8 in SW 1.9 mph   48 % 0.0 in
22:27 24.7 °F 13.3 °F 1015.8 in SW 1.9 mph 1.9 mph 49 % 0.0 in
22:32 24.6 °F 13.2 °F 1015.8 in Calm     49 % 0.0 in
22:37 24.5 °F 13.4 °F 1015.8 in WSW 1.9 mph   50 % 0.0 in
22:42 24.4 °F 13.6 °F 1015.8 in Calm     51 % 0.0 in
22:47 24.3 °F 13.5 °F 1015.8 in WNW 1.9 mph 1.9 mph 51 % 0.0 in
22:50 20.8 °F 16.0 °F 1015.8 in Calm     74 % 0.0 in
22:52 24.2 °F 13.7 °F 1015.8 in Calm     52 % 0.0 in
22:57 24.1 °F 13.6 °F 1015.8 in Calm     52 % 0.0 in
23:00 20.9 °F 16.1 °F 1015.8 in Calm     74 % 0.0 in
23:02 24.0 °F 13.6 °F 1015.8 in Calm     52 % 0.0 in
23:07 23.9 °F 13.7 °F 1015.8 in Calm     53 % 0.0 in
23:10 20.8 °F 16.0 °F 1015.8 in Calm   1.6 mph 74 % 0.0 in
23:12 23.8 °F 14.2 °F 1015.8 in Calm     55 % 0.0 in
23:17 23.7 °F 14.1 °F 1015.8 in NNE 1.9 mph   55 % 0.0 in
23:20 20.8 °F 16.0 °F 1015.8 in Calm     74 % 0.0 in
23:22 23.6 °F 14.1 °F 1015.8 in NNE 1.9 mph 1.9 mph 55 % 0.0 in
23:27 23.6 °F 14.6 °F 1015.8 in Calm     57 % 0.0 in
23:28 23.6 °F 14.6 °F 1015.8 in Calm     57 % 0.0 in
23:30 20.8 °F 16.2 °F 1015.8 in SSE 1.6 mph 3.2 mph 75 % 0.0 in
23:33 23.5 °F 15.0 °F 1015.8 in Calm     59 % 0.0 in
23:38 23.4 °F 15.2 °F 1015.8 in Calm     60 % 0.0 in
23:40 20.7 °F 16.1 °F 1015.8 in Calm   1.6 mph 75 % 0.0 in
23:43 23.3 °F 15.1 °F 1016.8 in Calm     60 % 0.0 in
23:48 23.2 °F 14.7 °F 1016.8 in Calm     59 % 0.0 in
23:50 20.6 °F 16.0 °F 1015.8 in Calm     75 % 0.0 in
23:53 23.2 °F 15.5 °F 1016.8 in WSW 1.9 mph 1.9 mph 62 % 0.0 in
23:58 23.1 °F 15.7 °F 1015.8 in Calm     63 % 0.0 in
Meteo Sesrovires
Elogis d' Weather Underground - 2 mb

Guio original per  Jim McMurry - jmcmurry@mwt.net Adaptat per a la plantilla per  Wim van der Kuil - Leuven-Template.eu

Trobareu la nostra informacio del temps tambe a:

Weather Underground

AWEKAS